createdAt,value
2023-01-29T00:02:10.456Z,6.43
2023-01-29T00:07:13.686Z,6.57
2023-01-29T00:12:16.790Z,6.63
2023-01-29T00:17:21.476Z,6.52
2023-01-29T00:22:24.813Z,6.36
2023-01-29T00:27:27.918Z,6.32
2023-01-29T00:32:33.481Z,6.40
2023-01-29T00:37:37.146Z,6.51
2023-01-29T00:42:57.925Z,6.70
2023-01-29T00:48:02.530Z,6.89
2023-01-29T00:53:05.662Z,7.06
2023-01-29T00:58:08.791Z,7.06
2023-01-29T01:03:13.313Z,7.17
2023-01-29T01:08:33.849Z,7.18
2023-01-29T01:13:37.211Z,7.08
2023-01-29T01:18:41.878Z,6.93
2023-01-29T01:23:45.120Z,6.84
2023-01-29T01:28:48.278Z,6.66
2023-01-29T01:33:54.429Z,6.56
2023-01-29T01:38:57.628Z,6.45
2023-01-29T01:44:02.961Z,6.45
2023-01-29T01:49:11.054Z,6.39
2023-01-29T01:54:20.558Z,6.23
2023-01-29T01:59:25.193Z,6.12
2023-01-29T02:04:47.147Z,5.96
2023-01-29T02:09:53.567Z,5.96
2023-01-29T02:14:57.256Z,5.98
2023-01-29T02:20:10.405Z,6.05
2023-01-29T02:25:51.470Z,6.06
2023-01-29T02:31:02.806Z,6.07
2023-01-29T02:36:18.116Z,5.95
2023-01-29T02:41:27.967Z,5.98
2023-01-29T02:46:38.415Z,5.99
2023-01-29T02:51:49.860Z,5.99
2023-01-29T02:56:57.714Z,6.01
2023-01-29T03:02:08.684Z,6.08
2023-01-29T03:07:37.676Z,6.11
2023-01-29T03:12:42.953Z,6.09
2023-01-29T03:17:54.646Z,6.15
2023-01-29T03:23:02.913Z,6.00
2023-01-29T03:28:25.581Z,5.63
2023-01-29T03:33:34.378Z,5.67
2023-01-29T03:38:37.621Z,5.50
2023-01-29T03:43:51.043Z,5.18
2023-01-29T03:48:59.460Z,5.15
2023-01-29T03:54:09.544Z,4.99
2023-01-29T03:59:21.863Z,4.80
2023-01-29T04:04:31.280Z,4.74
2023-01-29T04:09:40.514Z,4.70
2023-01-29T04:14:46.024Z,4.57
2023-01-29T04:19:51.159Z,4.60
2023-01-29T04:24:54.850Z,4.53
2023-01-29T04:30:15.204Z,4.42
2023-01-29T04:35:29.704Z,4.40
2023-01-29T04:40:40.599Z,4.65
2023-01-29T04:45:54.351Z,4.50
2023-01-29T04:51:05.489Z,4.36
2023-01-29T04:56:16.268Z,4.31
2023-01-29T05:01:22.559Z,4.38
2023-01-29T05:06:27.854Z,4.38
2023-01-29T05:11:33.523Z,4.26
2023-01-29T05:16:43.076Z,4.33
2023-01-29T05:21:49.380Z,4.38
2023-01-29T05:27:12.364Z,4.36
2023-01-29T05:32:16.648Z,4.45
2023-01-29T05:37:21.173Z,4.48
2023-01-29T05:42:24.378Z,4.34
2023-01-29T05:47:27.509Z,4.33
2023-01-29T05:52:32.109Z,4.44
2023-01-29T05:57:35.222Z,4.37
2023-01-29T06:02:38.445Z,4.24
2023-01-29T06:07:45.531Z,4.23
2023-01-29T06:12:49.033Z,4.27
2023-01-29T06:17:52.170Z,4.22
2023-01-29T06:22:56.733Z,4.12
2023-01-29T06:27:59.843Z,4.07
2023-01-29T06:33:03.037Z,3.93
2023-01-29T06:38:07.571Z,3.92
2023-01-29T06:43:10.693Z,3.84
2023-01-29T06:48:13.876Z,3.81
2023-01-29T06:53:19.388Z,3.69
2023-01-29T06:58:23.388Z,3.70
2023-01-29T07:03:26.530Z,3.68
2023-01-29T07:08:31.270Z,3.65
2023-01-29T07:13:34.769Z,3.71
2023-01-29T07:18:38.174Z,3.58
2023-01-29T07:23:42.810Z,3.68
2023-01-29T07:28:45.963Z,3.73
2023-01-29T07:33:49.104Z,3.75
2023-01-29T07:38:53.695Z,3.71
2023-01-29T07:43:56.801Z,3.72
2023-01-29T07:49:00.026Z,3.70
2023-01-29T07:54:04.621Z,3.50
2023-01-29T07:59:07.753Z,3.53
2023-01-29T08:04:10.907Z,3.48
2023-01-29T08:09:15.927Z,3.53
2023-01-29T08:14:19.214Z,3.53
2023-01-29T08:19:22.338Z,3.50
2023-01-29T08:24:36.054Z,3.49
2023-01-29T08:29:49.964Z,3.61
2023-01-29T08:34:53.095Z,3.82
2023-01-29T08:39:57.868Z,3.87
2023-01-29T08:45:01.138Z,3.93
2023-01-29T08:50:04.842Z,4.53
2023-01-29T08:55:10.671Z,4.92
2023-01-29T09:00:15.637Z,5.24
2023-01-29T09:05:19.682Z,5.47
2023-01-29T09:10:24.493Z,5.55
2023-01-29T09:15:27.923Z,5.81
2023-01-29T09:20:31.171Z,5.95
2023-01-29T09:25:36.366Z,6.18
2023-01-29T09:30:39.793Z,6.26
2023-01-29T09:35:43.989Z,6.47
2023-01-29T09:40:58.709Z,6.59
2023-01-29T09:46:06.905Z,6.78
2023-01-29T09:51:22.883Z,6.93
2023-01-29T09:56:29.227Z,7.08
2023-01-29T10:01:38.304Z,7.30
2023-01-29T10:07:02.364Z,7.39
2023-01-29T10:12:20.678Z,7.55
2023-01-29T10:17:41.861Z,7.55
2023-01-29T10:23:02.557Z,7.69
2023-01-29T10:28:17.776Z,7.85
2023-01-29T10:33:29.582Z,7.95
2023-01-29T10:38:44.218Z,8.07
2023-01-29T10:43:59.334Z,8.22
2023-01-29T10:49:16.435Z,8.21
2023-01-29T10:54:37.290Z,8.24
2023-01-29T10:59:59.936Z,8.35
2023-01-29T11:05:03.347Z,8.38
2023-01-29T11:10:12.999Z,8.37
2023-01-29T11:15:21.322Z,8.44
2023-01-29T11:20:28.744Z,8.55
2023-01-29T11:25:33.749Z,8.73
2023-01-29T11:30:40.592Z,8.73
2023-01-29T11:35:43.765Z,8.92
2023-01-29T11:40:47.134Z,8.87
2023-01-29T11:45:54.936Z,9.02
2023-01-29T11:51:00.817Z,9.12
2023-01-29T11:56:08.454Z,9.31
2023-01-29T12:01:13.531Z,9.35
2023-01-29T12:06:21.656Z,9.51
2023-01-29T12:11:30.477Z,9.56
2023-01-29T12:16:39.509Z,9.69
2023-01-29T12:21:48.971Z,9.73
2023-01-29T12:26:57.959Z,9.74
2023-01-29T12:32:12.655Z,10.08
2023-01-29T12:37:22.441Z,10.06
2023-01-29T12:42:26.104Z,10.24
2023-01-29T12:47:35.278Z,10.21
2023-01-29T12:52:43.121Z,10.49
2023-01-29T12:57:50.172Z,10.61
2023-01-29T13:03:00.660Z,10.78
2023-01-29T13:08:08.516Z,11.25
2023-01-29T13:13:17.756Z,11.53
2023-01-29T13:18:37.908Z,12.04
2023-01-29T13:23:44.631Z,12.62
2023-01-29T13:28:49.373Z,12.96
2023-01-29T13:33:59.831Z,12.76
2023-01-29T13:39:06.941Z,12.79
2023-01-29T13:44:21.883Z,12.40
2023-01-29T13:49:45.322Z,13.32
2023-01-29T13:54:57.446Z,14.67
2023-01-29T14:00:00.621Z,14.53
2023-01-29T14:05:39.324Z,14.44
2023-01-29T14:10:45.118Z,14.44
2023-01-29T14:16:26.317Z,14.93
2023-01-29T14:21:33.579Z,15.43
2023-01-29T14:26:45.702Z,15.66
2023-01-29T14:31:53.346Z,15.67
2023-01-29T14:36:58.507Z,15.66
2023-01-29T14:42:05.741Z,15.52
2023-01-29T14:47:19.743Z,15.67
2023-01-29T14:52:27.994Z,15.85
2023-01-29T14:57:33.388Z,15.89
2023-01-29T15:02:42.159Z,15.11
2023-01-29T15:07:50.337Z,15.05
2023-01-29T15:13:01.729Z,14.81
2023-01-29T15:18:08.691Z,14.76
2023-01-29T15:23:35.682Z,15.11
2023-01-29T15:28:42.304Z,15.16
2023-01-29T15:33:48.178Z,14.83
2023-01-29T15:39:05.662Z,14.86
2023-01-29T15:44:16.420Z,14.91
2023-01-29T15:49:26.835Z,14.35
2023-01-29T15:54:34.293Z,14.26
2023-01-29T15:59:44.888Z,14.32
2023-01-29T16:04:48.481Z,14.12
2023-01-29T16:09:53.299Z,13.85
2023-01-29T16:14:58.217Z,13.76
2023-01-29T16:20:03.775Z,13.71
2023-01-29T16:25:13.003Z,13.65
2023-01-29T16:30:19.838Z,13.63
2023-01-29T16:35:22.987Z,13.51
2023-01-29T16:40:32.667Z,13.51
2023-01-29T16:45:37.244Z,13.34
2023-01-29T16:50:54.350Z,13.31
2023-01-29T16:56:05.459Z,13.04
2023-01-29T17:01:12.575Z,12.70
2023-01-29T17:06:24.401Z,12.63
2023-01-29T17:11:33.808Z,12.34
2023-01-29T17:16:50.760Z,11.87
2023-01-29T17:21:54.372Z,11.66
2023-01-29T17:26:57.604Z,11.46
2023-01-29T17:32:02.228Z,11.28
2023-01-29T17:37:05.711Z,11.13
2023-01-29T17:42:13.467Z,10.99
2023-01-29T17:47:18.052Z,10.82
2023-01-29T17:52:21.191Z,10.66
2023-01-29T17:57:25.661Z,10.52
2023-01-29T18:02:30.313Z,10.36
2023-01-29T18:07:34.923Z,10.15
2023-01-29T18:12:38.021Z,9.90
2023-01-29T18:17:42.892Z,9.75
2023-01-29T18:22:46.294Z,9.56
2023-01-29T18:27:49.411Z,9.38
2023-01-29T18:32:54.603Z,9.25
2023-01-29T18:37:57.497Z,9.17
2023-01-29T18:43:01.044Z,9.13
2023-01-29T18:48:06.379Z,9.04
2023-01-29T18:53:09.253Z,8.84
2023-01-29T18:58:27.809Z,8.82
2023-01-29T19:03:37.119Z,8.79
2023-01-29T19:08:40.668Z,8.76
2023-01-29T19:13:43.847Z,8.61
2023-01-29T19:18:48.361Z,8.42
2023-01-29T19:23:51.705Z,8.37
2023-01-29T19:28:54.843Z,8.36
2023-01-29T19:33:59.483Z,8.26
2023-01-29T19:39:02.643Z,8.09
2023-01-29T19:44:05.903Z,7.95
2023-01-29T19:49:10.775Z,7.91
2023-01-29T19:54:14.273Z,7.69
2023-01-29T19:59:17.419Z,7.52
2023-01-29T20:04:21.966Z,7.36
2023-01-29T20:09:25.092Z,7.18
2023-01-29T20:14:28.194Z,7.12
2023-01-29T20:19:32.714Z,7.01
2023-01-29T20:24:39.471Z,7.24
2023-01-29T20:29:45.411Z,7.28
2023-01-29T20:34:52.372Z,7.29
2023-01-29T20:39:55.543Z,7.28
2023-01-29T20:44:58.714Z,7.27
2023-01-29T20:50:08.639Z,7.26
2023-01-29T20:55:13.675Z,7.19
2023-01-29T21:00:17.940Z,7.17
2023-01-29T21:05:22.586Z,7.14
2023-01-29T21:10:25.747Z,7.01
2023-01-29T21:15:28.915Z,7.06
2023-01-29T21:20:33.474Z,7.05
2023-01-29T21:25:36.614Z,6.97
2023-01-29T21:30:40.072Z,6.65
2023-01-29T21:35:44.665Z,6.63
2023-01-29T21:40:47.796Z,6.46
2023-01-29T21:45:56.653Z,6.24
2023-01-29T21:51:01.291Z,5.99
2023-01-29T21:56:06.067Z,6.15
2023-01-29T22:01:35.857Z,6.26
2023-01-29T22:06:34.037Z,6.38
2023-01-29T22:11:37.187Z,6.44
2023-01-29T22:16:40.514Z,6.23
2023-01-29T22:21:45.118Z,5.99
2023-01-29T22:26:49.496Z,6.11
2023-01-29T22:31:52.712Z,6.03
2023-01-29T22:36:57.456Z,5.94
2023-01-29T22:42:00.586Z,5.91
2023-01-29T22:47:03.720Z,5.69
2023-01-29T22:52:11.211Z,5.61
2023-01-29T22:57:16.290Z,5.56
2023-01-29T23:02:19.423Z,5.56
2023-01-29T23:07:23.978Z,5.41
2023-01-29T23:12:27.144Z,5.13
2023-01-29T23:17:30.280Z,5.41
2023-01-29T23:22:34.881Z,5.43
2023-01-29T23:27:38.044Z,5.36
2023-01-29T23:32:41.178Z,5.39
2023-01-29T23:37:45.722Z,5.39
2023-01-29T23:42:49.509Z,5.41
2023-01-29T23:47:52.655Z,5.22
2023-01-29T23:52:57.155Z,5.23
2023-01-29T23:58:00.327Z,5.30
